createdAt,value
2022-11-21T00:01:56.334Z,68.39
2022-11-21T00:04:43.774Z,68.52
2022-11-21T00:07:31.212Z,68.41
2022-11-21T00:10:18.676Z,68.55
2022-11-21T00:13:06.441Z,68.71
2022-11-21T00:15:53.881Z,68.51
2022-11-21T00:18:42.417Z,68.70
2022-11-21T00:21:29.884Z,68.62
2022-11-21T00:24:17.244Z,68.51
2022-11-21T00:27:04.613Z,68.60
2022-11-21T00:29:51.918Z,68.48
2022-11-21T00:32:39.357Z,68.54
2022-11-21T00:35:27.232Z,68.51
2022-11-21T00:38:14.605Z,68.60
2022-11-21T00:41:02.117Z,68.64
2022-11-21T00:43:49.533Z,68.37
2022-11-21T00:46:36.953Z,68.51
2022-11-21T00:49:24.405Z,68.35
2022-11-21T00:52:11.890Z,68.52
2022-11-21T00:54:59.299Z,68.62
2022-11-21T00:57:46.727Z,68.63
2022-11-21T01:00:34.167Z,68.45
2022-11-21T01:03:21.639Z,68.48
2022-11-21T01:06:13.220Z,68.53
2022-11-21T01:09:00.667Z,68.69
2022-11-21T01:11:48.033Z,68.64
2022-11-21T01:14:35.476Z,68.59
2022-11-21T01:17:22.875Z,68.56
2022-11-21T01:20:10.388Z,68.56
2022-11-21T01:22:57.798Z,68.65
2022-11-21T01:25:45.180Z,68.56
2022-11-21T01:28:32.853Z,68.57
2022-11-21T01:31:21.650Z,68.52
2022-11-21T01:34:09.146Z,68.56
2022-11-21T01:36:56.529Z,68.69
2022-11-21T01:39:43.870Z,68.53
2022-11-21T01:42:43.886Z,68.75
2022-11-21T01:45:52.560Z,68.58
2022-11-21T01:48:46.078Z,68.79
2022-11-21T01:51:36.442Z,68.66
2022-11-21T01:54:27.370Z,68.67
2022-11-21T01:57:17.492Z,68.87
2022-11-21T02:00:08.335Z,68.89
2022-11-21T02:02:58.782Z,68.85
2022-11-21T02:05:46.907Z,68.71
2022-11-21T02:08:34.430Z,68.89
2022-11-21T02:11:35.309Z,68.78
2022-11-21T02:14:23.582Z,68.84
2022-11-21T02:17:11.084Z,69.05
2022-11-21T02:20:09.644Z,69.25
2022-11-21T02:23:09.345Z,69.16
2022-11-21T02:25:56.790Z,69.10
2022-11-21T02:28:44.480Z,68.92
2022-11-21T02:31:31.869Z,69.04
2022-11-21T02:34:19.612Z,68.97
2022-11-21T02:37:08.610Z,69.16
2022-11-21T02:39:58.625Z,68.95
2022-11-21T02:42:59.146Z,69.03
2022-11-21T02:45:46.699Z,68.98
2022-11-21T02:48:35.192Z,69.09
2022-11-21T02:51:22.714Z,69.44
2022-11-21T02:54:10.068Z,69.32
2022-11-21T02:56:57.716Z,69.29
2022-11-21T02:59:45.085Z,69.32
2022-11-21T03:02:32.485Z,69.33
2022-11-21T03:05:20.765Z,69.31
2022-11-21T03:08:08.235Z,69.08
2022-11-21T03:10:55.641Z,69.13
2022-11-21T03:13:43.040Z,68.97
2022-11-21T03:16:30.387Z,68.99
2022-11-21T03:19:17.788Z,68.88
2022-11-21T03:22:05.157Z,69.13
2022-11-21T03:24:52.554Z,68.84
2022-11-21T03:27:39.916Z,68.76
2022-11-21T03:30:27.596Z,68.91
2022-11-21T03:33:15.008Z,68.93
2022-11-21T03:36:02.472Z,68.86
2022-11-21T03:38:49.934Z,68.94
2022-11-21T03:41:37.334Z,68.92
2022-11-21T03:44:25.294Z,68.76
2022-11-21T03:47:13.001Z,68.99
2022-11-21T03:50:00.526Z,69.07
2022-11-21T03:52:48.064Z,69.09
2022-11-21T03:55:35.491Z,69.05
2022-11-21T03:58:22.908Z,69.14
2022-11-21T04:01:10.874Z,68.86
2022-11-21T04:03:58.489Z,68.81
2022-11-21T04:06:45.915Z,68.80
2022-11-21T04:09:33.666Z,68.75
2022-11-21T04:12:21.141Z,68.76
2022-11-21T04:15:13.502Z,68.89
2022-11-21T04:18:01.493Z,68.70
2022-11-21T04:20:48.879Z,68.78
2022-11-21T04:23:36.497Z,68.93
2022-11-21T04:26:23.847Z,68.89
2022-11-21T04:29:11.282Z,68.73
2022-11-21T04:31:58.690Z,68.85
2022-11-21T04:34:46.029Z,68.68
2022-11-21T04:37:33.503Z,68.75
2022-11-21T04:40:21.161Z,68.87
2022-11-21T04:43:08.593Z,68.73
2022-11-21T04:45:55.999Z,68.78
2022-11-21T04:48:43.455Z,68.79
2022-11-21T05:44:06.780Z,68.61
2022-11-21T05:46:54.547Z,68.61
2022-11-21T05:49:44.377Z,68.56
2022-11-21T14:05:02.320Z,65.69
2022-11-21T16:34:58.362Z,65.96
2022-11-21T16:37:47.234Z,66.13
2022-11-21T16:40:35.093Z,65.85
2022-11-21T16:43:23.611Z,65.97
2022-11-21T16:46:11.265Z,66.02
2022-11-21T16:49:00.974Z,65.99
2022-11-21T16:51:49.053Z,65.89
2022-11-21T16:54:36.693Z,65.95
2022-11-21T16:57:24.338Z,65.98
2022-11-21T17:00:12.317Z,66.09
2022-11-21T17:03:00.803Z,66.11
2022-11-21T17:05:58.415Z,65.94
2022-11-21T17:08:47.200Z,66.18
2022-11-21T17:11:35.003Z,66.22
2022-11-21T17:14:22.775Z,66.04
2022-11-21T17:17:10.439Z,66.21
2022-11-21T17:19:59.087Z,66.09
2022-11-21T17:22:47.121Z,66.10
2022-11-21T17:25:34.914Z,66.19
2022-11-21T17:28:22.723Z,66.17
2022-11-21T17:37:15.594Z,66.24
2022-11-21T17:40:25.190Z,66.15
2022-11-21T17:43:58.298Z,66.08
2022-11-21T17:47:05.958Z,66.20
2022-11-21T17:49:53.829Z,66.24
2022-11-21T17:52:41.603Z,66.22
2022-11-21T17:55:29.182Z,66.16
2022-11-21T17:58:16.746Z,65.97
2022-11-21T18:01:06.188Z,66.38
2022-11-21T18:04:02.321Z,66.10
2022-11-21T18:06:50.360Z,66.29
2022-11-21T18:09:40.471Z,66.12
2022-11-21T18:12:28.123Z,66.31
2022-11-21T18:15:15.751Z,66.15
2022-11-21T18:18:06.119Z,66.25
2022-11-21T18:21:12.009Z,66.24
2022-11-21T18:24:00.400Z,66.36
2022-11-21T18:26:48.366Z,66.30
2022-11-21T18:29:37.168Z,66.13
2022-11-21T18:32:25.110Z,66.22
2022-11-21T18:35:12.871Z,66.50
2022-11-21T18:38:00.613Z,66.48
2022-11-21T18:40:48.208Z,66.37
2022-11-21T18:43:42.519Z,66.43
2022-11-21T18:46:32.004Z,66.59
2022-11-21T18:49:22.077Z,66.69
2022-11-21T18:52:09.775Z,66.39
2022-11-21T18:54:57.517Z,66.31
2022-11-21T18:57:45.271Z,66.56
2022-11-21T19:00:33.016Z,66.46
2022-11-21T19:03:20.768Z,66.52
2022-11-21T19:06:17.850Z,66.44
2022-11-21T19:09:08.623Z,66.59
2022-11-21T19:11:59.182Z,66.74
2022-11-21T19:14:47.238Z,66.57
2022-11-21T19:17:35.096Z,66.58
2022-11-21T19:20:22.846Z,66.66
2022-11-21T19:23:10.562Z,66.72
2022-11-21T19:26:02.847Z,66.65
2022-11-21T19:28:52.819Z,66.61
2022-11-21T19:31:45.993Z,66.66
2022-11-21T19:34:34.047Z,66.71
2022-11-21T19:37:21.898Z,66.57
2022-11-21T19:40:14.400Z,66.52
2022-11-21T19:43:02.760Z,66.68
2022-11-21T19:45:53.718Z,66.52
2022-11-21T19:48:53.546Z,66.77
2022-11-21T19:51:42.233Z,66.65
2022-11-21T19:54:30.070Z,66.76
2022-11-21T19:57:17.879Z,66.88
2022-11-21T20:00:08.539Z,66.82
2022-11-21T20:02:57.541Z,66.81
2022-11-21T20:05:45.250Z,66.65
2022-11-21T20:08:33.361Z,66.81
2022-11-21T20:11:22.384Z,66.77
2022-11-21T20:14:10.412Z,66.57
2022-11-21T20:16:58.031Z,66.82
2022-11-21T20:19:50.632Z,66.95
2022-11-21T20:22:38.485Z,66.85
2022-11-21T20:25:26.154Z,66.85
2022-11-21T20:28:13.769Z,66.88
2022-11-21T20:31:22.858Z,66.93
2022-11-21T20:34:12.790Z,66.94
2022-11-21T20:37:00.870Z,67.00
2022-11-21T20:39:48.517Z,66.98
2022-11-21T20:42:37.413Z,66.94
2022-11-21T20:46:07.139Z,67.00
2022-11-21T20:48:35.742Z,67.06
2022-11-21T20:54:31.832Z,66.99
2022-11-21T20:57:19.654Z,66.82
2022-11-21T21:00:08.019Z,67.02
2022-11-21T21:02:55.736Z,66.96
2022-11-21T21:05:43.653Z,66.88
2022-11-21T21:08:32.094Z,66.84
2022-11-21T21:11:51.368Z,66.82
2022-11-21T21:14:30.386Z,66.84
2022-11-21T21:17:18.071Z,66.84
2022-11-21T21:20:06.504Z,67.01
2022-11-21T21:22:54.933Z,66.89
2022-11-21T21:25:42.881Z,67.10
2022-11-21T21:28:30.740Z,67.01
2022-11-21T21:31:21.033Z,66.97
2022-11-21T21:34:09.926Z,67.09
2022-11-21T21:36:57.502Z,67.03
2022-11-21T21:39:45.094Z,66.99
2022-11-21T21:42:32.770Z,66.83
2022-11-21T21:45:20.475Z,67.04
2022-11-21T21:48:08.094Z,66.96
2022-11-21T21:51:04.690Z,67.12
2022-11-21T21:53:52.855Z,67.01
2022-11-21T21:56:40.420Z,67.09
2022-11-21T21:59:28.057Z,67.01
2022-11-21T22:02:15.743Z,67.10
2022-11-21T22:05:03.631Z,66.88
2022-11-21T22:07:51.341Z,67.07
2022-11-21T22:10:38.998Z,66.84
2022-11-21T22:13:26.679Z,67.10
2022-11-21T22:16:15.134Z,67.14
2022-11-21T22:19:02.774Z,67.01
2022-11-21T22:21:50.484Z,66.97
2022-11-21T22:24:39.264Z,67.07
2022-11-21T22:27:27.214Z,67.02
2022-11-21T22:30:14.825Z,67.07
2022-11-21T22:33:02.651Z,67.22
2022-11-21T22:35:50.918Z,67.14
2022-11-21T22:38:38.600Z,67.35
2022-11-21T22:41:27.344Z,67.47
2022-11-21T22:44:15.024Z,67.17
2022-11-21T22:47:02.726Z,67.13
2022-11-21T22:49:50.358Z,67.09
2022-11-21T22:52:38.129Z,66.89
2022-11-21T22:55:26.832Z,67.31
2022-11-21T22:58:14.502Z,67.24
2022-11-21T23:01:05.548Z,67.19
2022-11-21T23:03:53.696Z,67.17
2022-11-21T23:06:41.489Z,67.08
2022-11-21T23:09:29.331Z,67.07
2022-11-21T23:12:17.080Z,67.10
2022-11-21T23:15:05.204Z,67.02
2022-11-21T23:17:53.097Z,67.15
2022-11-21T23:20:42.792Z,67.01
2022-11-21T23:23:30.934Z,67.19
2022-11-21T23:26:19.009Z,67.08
2022-11-21T23:29:08.846Z,67.31
2022-11-21T23:31:57.009Z,67.28
2022-11-21T23:34:44.792Z,67.39
2022-11-21T23:37:32.508Z,67.17
2022-11-21T23:40:20.321Z,67.07
2022-11-21T23:43:08.051Z,67.18
2022-11-21T23:45:55.903Z,67.16
2022-11-21T23:48:43.669Z,67.08
2022-11-21T23:51:31.390Z,67.08
2022-11-21T23:54:19.132Z,67.01
2022-11-21T23:57:06.958Z,66.96
2022-11-21T23:59:55.192Z,67.16
